createdAt,value
2023-02-11T00:11:28.301Z,33.33
2023-02-11T00:41:31.690Z,33.60
2023-02-11T01:11:34.935Z,36.00
2023-02-11T01:41:38.179Z,30.27
2023-02-11T02:11:41.477Z,30.17
2023-02-11T02:41:44.349Z,34.83
2023-02-11T03:11:48.118Z,34.40
2023-02-11T03:41:51.029Z,31.90
2023-02-11T04:11:54.981Z,32.40
2023-02-11T04:41:57.753Z,41.05
2023-02-11T05:12:01.201Z,40.20
2023-02-11T05:42:04.022Z,41.20
2023-02-11T06:12:07.749Z,43.70
2023-02-11T06:42:10.606Z,52.77
2023-02-11T07:12:14.202Z,51.63
2023-02-11T07:42:17.708Z,45.47
2023-02-11T08:12:20.881Z,51.65
2023-02-11T08:42:24.290Z,50.23
2023-02-11T09:12:27.242Z,51.07
2023-02-11T09:42:30.658Z,40.23
2023-02-11T10:12:33.873Z,53.93
2023-02-11T10:42:36.908Z,35.80
2023-02-11T11:12:42.099Z,40.00
2023-02-11T11:42:45.605Z,39.20
2023-02-11T12:12:49.790Z,33.83
2023-02-11T12:42:53.891Z,29.10
2023-02-11T13:12:57.484Z,36.35
2023-02-11T13:43:00.814Z,26.70
2023-02-11T14:13:04.220Z,19.27
2023-02-11T14:43:07.449Z,20.10
2023-02-11T15:13:10.866Z,23.73
2023-02-11T15:43:14.577Z,19.87
2023-02-11T16:13:18.338Z,16.70
2023-02-11T16:43:22.260Z,17.70
2023-02-11T17:13:25.484Z,15.10
2023-02-11T17:43:28.314Z,17.67
2023-02-11T18:13:32.139Z,14.90
2023-02-11T18:43:36.010Z,15.53
2023-02-11T19:13:39.713Z,16.60
2023-02-11T19:43:43.204Z,16.17
2023-02-11T20:13:46.640Z,14.23
2023-02-11T20:43:50.251Z,16.70
2023-02-11T21:13:53.977Z,14.67
2023-02-11T21:43:58.572Z,14.95
2023-02-11T22:14:03.084Z,14.10
2023-02-11T22:44:07.172Z,14.40
2023-02-11T23:14:10.107Z,15.90
2023-02-11T23:44:13.564Z,12.77
